Ted Stevens Anchorage International Airport
PANC : now visible

Airfield :











YOU CAN JOIN US ON...

 
LOGIN :

Register | Disclaimer

   EN    FR    IT 

 









Legend :    VFR   Marginal VFR   IFR   Intensive IFR   Very Intensive IFR
Visi :
Ceiling :
>= 8 km
>= 3000ft
5 to 8 km
1000 to 3000 ft
1500m to 5 km
500 to 1000 ft
800 to 1500m
200 to 500 ft
< 800m
< 200 ft
Symbols :   Thunderstorms  Fog  Heavy snow  Heavy precipitations  Wind > 20 kt






- Airport Elevation : 152 ft
- IATA code : ANC


PANC - Ted Stevens Anchorage International

CURRENT METAR :
  • 281653Z 12003KT 10SM -SN FEW008 M18/M21 A2934 RMK AO2 SNB53 SLP940 P0000 T11781211

EXPIRED METARs :
  • 281641Z 10003KT 10SM FEW008 M18/M22 A2934 RMK AO2 T11831217
  • 281553Z 14003KT 10SM CLR M20/M23 A2933 RMK AO2 SLP938 T12001233
  • 281453Z 00000KT 10SM FEW100 M19/M23 A2932 RMK AO2 SLP933 I3000 T11941228 51005

TAF PANC
Valid from the 28 at 12:00 until the 29 at 18:00 UTC


281149Z 2812/2918 VRB06KT P6SM SCT060 SCT100
FM290000 02008KT P6SM BKN100
FM290600 36015G23KT P6SM VCSH SCT060 BKN120



MET'MAP, your aeronautical weather chart ! - Copyright ORBIFLY December 2007 - Disclaimer

ORBIFLY MET'MAP TEAM :

Programming & Development : Alexandra Zaïnal
Concept & original design : Baudouin d'Aumeries
Assistance for programming : Marc-Olivier Méhu
Technical & hardware support : Manuel Goepfert

Contact : metmap@orbifly.com




SOURCES & CREDITS :

   NOAA       Earth
Advisory